Time;durP1;ratioP1;P1;durP2;ratioP2;P2;SDS_P1;SDS_P2;PMS_P1;PMS_P2;Temp;Humidity;BMP_temperature;BMP_pressure;BME280_temperature;BME280_humidity;BME280_pressure;Samples;Min_cycle;Max_cycle;Signal;HPM_P1;HPM_P2
2023/03/24 00:01:28;;;;;;;1.40;1.30;;;;;;;18.61;50.58;96608.81;4969994;28;20243;-90
2023/03/24 00:03:54;;;;;;;1.20;1.20;;;;;;;19.13;50.40;96708.63;4972527;28;20242;-89
2023/03/24 00:06:21;;;;;;;1.50;1.40;;;;;;;18.81;50.53;96632.25;4968113;28;20211;-89
2023/03/24 00:08:48;;;;;;;1.10;1.10;;;;;;;19.54;50.64;96764.06;4977399;28;20218;-91
2023/03/24 00:11:17;;;;;;;1.30;1.20;;;;;;;18.75;50.54;96620.22;4987029;28;20211;-90
2023/03/24 00:13:45;;;;;;;1.40;1.30;;;;;;;18.91;50.60;96644.38;4974861;28;20217;-91
2023/03/24 00:16:15;;;;;;;1.30;1.20;;;;;;;19.04;50.70;96676.97;4955459;28;20709;-90
2023/03/24 00:18:42;;;;;;;1.50;1.40;;;;;;;19.12;50.63;96676.34;4953733;28;20227;-90
2023/03/24 00:21:10;;;;;;;1.33;1.23;;;;;;;19.16;50.60;96682.38;4976268;28;20230;-90
2023/03/24 00:23:37;;;;;;;1.40;1.30;;;;;;;19.36;50.68;96716.91;4976448;28;20203;-90
2023/03/24 00:26:11;;;;;;;1.30;1.20;;;;;;;19.11;50.81;96669.53;4983770;28;20211;-90
2023/03/24 00:28:37;;;;;;;1.40;1.30;;;;;;;19.52;50.66;96739.38;4986356;28;20225;-89
2023/03/24 00:31:05;;;;;;;1.50;1.40;;;;;;;19.31;50.76;96706.59;4982637;28;20199;-90
2023/03/24 00:33:33;;;;;;;1.53;1.43;;;;;;;19.21;50.80;96699.50;4960699;28;20211;-88
2023/03/24 00:36:05;;;;;;;1.60;1.50;;;;;;;18.99;50.70;96645.44;4968838;28;20215;-90
2023/03/24 00:38:36;;;;;;;1.30;1.20;;;;;;;19.11;50.63;96663.56;4978780;28;20226;-88
2023/03/24 00:41:04;;;;;;;1.20;1.20;;;;;;;18.93;50.63;96622.38;4969194;28;20685;-90
2023/03/24 00:43:31;;;;;;;1.40;1.30;;;;;;;18.55;50.65;96555.22;4960127;28;20637;-90
2023/03/24 00:46:02;;;;;;;1.40;1.30;;;;;;;19.34;50.69;96696.47;4964997;28;20253;-90
2023/03/24 00:48:29;;;;;;;1.40;1.30;;;;;;;18.13;50.69;96486.31;4976363;28;20225;-90
2023/03/24 00:50:56;;;;;;;1.47;1.37;;;;;;;18.49;50.67;96549.13;4987504;28;20241;-90
2023/03/24 00:53:24;;;;;;;1.10;1.10;;;;;;;18.93;50.71;96620.69;4974753;28;20207;-88
2023/03/24 00:55:51;;;;;;;1.20;1.20;;;;;;;19.14;50.65;96651.78;4956885;28;20660;-90
2023/03/24 00:58:18;;;;;;;1.20;1.20;;;;;;;19.22;50.62;96659.63;4970201;28;20839;-90
2023/03/24 01:00:45;;;;;;;1.40;1.30;;;;;;;18.96;50.84;96614.81;4973598;28;20261;-90
2023/03/24 01:03:13;;;;;;;1.50;1.40;;;;;;;19.38;50.77;96688.09;4953923;28;20230;-90
2023/03/24 01:05:40;;;;;;;1.60;1.50;;;;;;;19.14;50.65;96650.91;4989575;28;20563;-90
2023/03/24 01:08:07;;;;;;;1.67;1.57;;;;;;;18.99;50.79;96620.84;4948074;28;20212;-90
2023/03/24 01:10:41;;;;;;;1.10;1.10;;;;;;;19.31;50.71;96655.66;4956180;28;20262;-88
2023/03/24 01:13:09;;;;;;;1.20;1.10;;;;;;;18.91;50.58;96594.34;4969501;28;20282;-90
2023/03/24 01:15:35;;;;;;;1.40;1.30;;;;;;;18.75;50.69;96576.09;4974979;28;20230;-89
2023/03/24 01:18:02;;;;;;;1.20;1.20;;;;;;;19.50;50.82;96712.97;4967401;28;20581;-90
2023/03/24 01:20:32;;;;;;;1.23;1.20;;;;;;;19.12;50.54;96668.69;4984180;28;20603;-90
2023/03/24 01:22:59;;;;;;;1.40;1.30;;;;;;;19.21;50.68;96686.75;4956264;28;20208;-90
2023/03/24 01:25:27;;;;;;;1.50;1.40;;;;;;;19.04;50.93;96642.16;4952559;28;20234;-89
2023/03/24 01:27:53;;;;;;;1.47;1.37;;;;;;;19.18;50.73;96678.16;4966786;28;20264;-90
2023/03/24 01:30:25;;;;;;;1.50;1.40;;;;;;;19.24;50.82;96681.75;4953927;28;20199;-90
2023/03/24 01:32:52;;;;;;;1.40;1.30;;;;;;;18.16;50.52;96506.72;4963455;28;20274;-90
2023/03/24 01:35:19;;;;;;;1.07;1.07;;;;;;;18.86;50.77;96606.06;4969699;28;20656;-90
2023/03/24 01:37:46;;;;;;;1.30;1.20;;;;;;;19.36;50.82;96686.34;4956701;28;20238;-90
2023/03/24 01:40:19;;;;;;;1.30;1.20;;;;;;;18.99;50.74;96635.25;4984901;28;20229;-90
2023/03/24 01:42:45;;;;;;;1.50;1.40;;;;;;;18.74;50.74;96587.09;4973150;28;20734;-90
2023/03/24 01:45:37;;;;;;;1.30;1.20;;;;;;;19.52;50.76;96719.00;4952844;28;20199;-90
2023/03/24 01:48:25;;;;;;;1.40;1.30;;;;;;;18.71;50.71;96590.41;4980872;28;20230;-90
2023/03/24 01:50:55;;;;;;;1.60;1.50;;;;;;;19.28;50.52;96708.19;4970538;28;20294;-90
2023/03/24 01:53:22;;;;;;;1.40;1.30;;;;;;;19.49;50.75;96732.53;4958586;28;20225;-90
2023/03/24 01:55:48;;;;;;;1.50;1.40;;;;;;;19.24;50.77;96685.97;4959460;28;20729;-90
2023/03/24 01:58:16;;;;;;;1.43;1.33;;;;;;;18.04;50.53;96490.28;4958735;28;20273;-87
2023/03/24 02:00:42;;;;;;;1.23;1.23;;;;;;;18.88;50.67;96644.28;4987106;28;20249;-90
2023/03/24 02:03:13;;;;;;;1.20;1.20;;;;;;;18.54;50.85;96584.06;4963157;28;20226;-90
2023/03/24 02:05:40;;;;;;;1.40;1.30;;;;;;;18.66;50.87;96594.53;4941073;28;20557;-89
2023/03/24 02:08:29;;;;;;;1.20;1.20;;;;;;;19.51;50.86;96733.41;4964287;28;20258;-90
2023/03/24 02:10:55;;;;;;;1.30;1.30;;;;;;;18.99;50.78;96642.88;4983495;28;20203;-90
2023/03/24 02:13:22;;;;;;;1.20;1.20;;;;;;;18.79;50.70;96605.88;4951139;28;20207;-90
2023/03/24 02:16:07;;;;;;;1.40;1.30;;;;;;;19.51;50.75;96738.50;4981326;28;20218;-89
2023/03/24 02:18:45;;;;;;;1.27;1.23;;;;;;;19.52;50.67;96731.72;5013048;23;21116;-84
2023/03/24 02:21:42;;;;;;;1.50;1.40;;;;;;;19.51;50.63;96727.47;5009630;28;20202;-85
2023/03/24 02:24:23;;;;;;;1.30;1.20;;;;;;;19.52;50.74;96719.88;5012336;28;20297;-84
2023/03/24 02:27:12;;;;;;;1.50;1.40;;;;;;;19.52;50.60;96717.31;4995888;28;20649;-84
2023/03/24 02:29:44;;;;;;;1.50;1.40;;;;;;;19.52;50.23;96713.91;5009328;28;20245;-83
2023/03/24 02:33:08;;;;;;;1.40;1.30;;;;;;;19.51;50.74;96702.00;5005071;28;20670;-85
2023/03/24 02:36:14;;;;;;;1.10;1.10;;;;;;;19.52;50.74;96709.66;4930995;29;20235;-84
2023/03/24 02:39:10;;;;;;;1.13;1.10;;;;;;;19.51;50.61;96705.38;4943219;29;20275;-84
2023/03/24 02:41:51;;;;;;;1.40;1.30;;;;;;;18.69;50.85;96547.94;4960328;28;20213;-84
2023/03/24 02:44:48;;;;;;;1.53;1.43;;;;;;;19.51;50.79;96681.59;4981887;28;20286;-85
2023/03/24 02:47:22;;;;;;;1.33;1.23;;;;;;;18.43;50.71;96490.47;4999906;28;20206;-85
2023/03/24 02:49:55;;;;;;;1.80;1.70;;;;;;;19.50;50.96;96669.66;4974970;28;20230;-84
2023/03/24 02:52:45;;;;;;;1.50;1.40;;;;;;;19.50;50.64;96657.78;5012941;28;20692;-84
2023/03/24 02:55:17;;;;;;;1.50;1.40;;;;;;;19.50;50.79;96650.16;5003971;28;20202;-84
2023/03/24 02:57:50;;;;;;;1.30;1.20;;;;;;;19.50;50.54;96647.59;5006507;28;20217;-84
2023/03/24 03:00:40;;;;;;;1.47;1.37;;;;;;;19.13;50.71;96580.44;5012215;28;20724;-85
2023/03/24 03:03:09;;;;;;;1.07;1.03;;;;;;;19.44;50.66;96633.84;4976203;28;20199;-85
2023/03/24 03:05:43;;;;;;;1.60;1.43;;;;;;;19.51;50.90;96648.47;4996224;28;20573;-84
2023/03/24 03:08:11;;;;;;;1.47;1.37;;;;;;;19.50;50.76;96641.63;4993093;28;20276;-84
2023/03/24 03:10:39;;;;;;;1.50;1.40;;;;;;;19.49;50.85;96634.81;5013055;28;20752;-83
2023/03/24 03:13:09;;;;;;;1.50;1.40;;;;;;;18.97;50.76;96551.19;4969800;28;20235;-84
2023/03/24 03:15:38;;;;;;;1.50;1.40;;;;;;;19.12;50.86;96564.28;4977870;28;20275;-84
2023/03/24 03:18:13;;;;;;;1.20;1.20;;;;;;;19.50;50.78;96636.53;4992477;28;20214;-84
2023/03/24 03:20:49;;;;;;;1.50;1.40;;;;;;;19.51;50.68;96630.63;5010512;28;20210;-84
2023/03/24 03:23:18;;;;;;;1.50;1.40;;;;;;;19.16;50.82;96560.13;4995141;28;20379;-84
2023/03/24 03:25:49;;;;;;;1.23;1.20;;;;;;;19.50;50.76;96603.41;4988471;28;20199;-84
2023/03/24 03:28:19;;;;;;;1.40;1.30;;;;;;;19.15;50.66;96538.03;4996324;28;20213;-83
2023/03/24 03:30:49;;;;;;;1.40;1.30;;;;;;;19.50;50.66;96614.47;4994867;28;20209;-84
2023/03/24 03:33:23;;;;;;;1.43;1.33;;;;;;;19.51;50.78;96611.09;4993490;28;20826;-84
2023/03/24 03:36:01;;;;;;;1.33;1.27;;;;;;;18.89;50.86;96486.50;4980386;28;20289;-84
2023/03/24 03:38:33;;;;;;;1.23;1.20;;;;;;;19.51;50.77;96592.41;4971565;28;20199;-85
2023/03/24 03:41:01;;;;;;;1.23;1.20;;;;;;;19.50;50.77;96591.53;5013467;28;20209;-85
2023/03/24 03:43:27;;;;;;;1.40;1.30;;;;;;;19.51;50.80;96600.91;4992878;28;20203;-83
2023/03/24 03:45:54;;;;;;;1.30;1.30;;;;;;;11.41;50.46;95229.16;4973022;28;20225;-84
2023/03/24 03:48:21;;;;;;;1.33;1.23;;;;;;;18.89;50.63;96483.97;4995079;28;20202;-85
2023/03/24 03:50:47;;;;;;;1.77;1.67;;;;;;;19.52;50.62;96591.56;4972577;28;20199;-84
2023/03/24 03:53:20;;;;;;;1.40;1.30;;;;;;;17.58;50.57;96244.31;4980846;28;20258;-84
2023/03/24 03:55:46;;;;;;;1.60;1.50;;;;;;;17.67;50.78;96262.31;4973725;28;20258;-84
2023/03/24 03:58:13;;;;;;;1.40;1.30;;;;;;;19.50;50.63;96576.25;4982529;28;20205;-84
2023/03/24 04:00:39;;;;;;;1.40;1.30;;;;;;;19.50;50.90;96571.16;4989957;28;20293;-84
2023/03/24 04:03:16;;;;;;;1.40;1.30;;;;;;;19.51;50.78;96588.16;4990166;28;20288;-84
2023/03/24 04:05:47;;;;;;;1.40;1.30;;;;;;;17.31;50.68;96192.81;5008924;28;20228;-84
2023/03/24 04:08:18;;;;;;;1.40;1.30;;;;;;;19.51;50.96;96566.94;4977302;28;20206;-84
2023/03/24 04:10:52;;;;;;;1.37;1.30;;;;;;;19.51;50.77;96559.28;4989691;28;20263;-85
2023/03/24 04:13:44;;;;;;;1.50;1.40;;;;;;;19.50;50.81;96558.41;5008826;28;20238;-84
2023/03/24 04:16:21;;;;;;;1.57;1.47;;;;;;;19.44;50.82;96552.31;5011268;28;20648;-85
2023/03/24 04:18:59;;;;;;;1.37;1.27;;;;;;;19.51;50.89;96559.28;4991741;28;20249;-84
2023/03/24 04:21:50;;;;;;;1.17;1.17;;;;;;;19.50;50.68;96572.84;5007349;28;20657;-84
2023/03/24 04:25:01;;;;;;;1.60;1.50;;;;;;;19.50;50.69;96573.69;5002261;28;20230;-84
2023/03/24 04:28:05;;;;;;;1.50;1.40;;;;;;;18.77;50.68;96442.13;5011792;28;20198;-84
2023/03/24 04:30:43;;;;;;;1.20;1.20;;;;;;;19.11;50.80;96509.09;5003501;28;20258;-84
2023/03/24 04:33:37;;;;;;;1.50;1.40;;;;;;;19.49;50.81;96578.78;4974129;28;20571;-84
2023/03/24 04:36:06;;;;;;;1.30;1.20;;;;;;;18.61;50.88;96445.09;4986163;28;20254;-84
2023/03/24 04:38:35;;;;;;;1.50;1.40;;;;;;;19.50;50.69;96583.03;5011252;28;20269;-84
2023/03/24 04:41:01;;;;;;;1.33;1.23;;;;;;;18.60;50.92;96429.00;4990626;28;20222;-85
2023/03/24 04:43:35;;;;;;;1.60;1.50;;;;;;;19.14;50.76;96528.66;4997531;28;20289;-83
2023/03/24 04:46:03;;;;;;;1.30;1.20;;;;;;;19.00;50.94;96497.81;4976760;28;20207;-84
2023/03/24 04:48:30;;;;;;;1.20;1.20;;;;;;;19.17;50.98;96531.28;4974374;28;20297;-85
2023/03/24 04:50:58;;;;;;;1.60;1.50;;;;;;;17.59;50.78;96268.88;4991391;28;20317;-84
2023/03/24 04:53:25;;;;;;;1.50;1.40;;;;;;;18.69;50.75;96452.13;4988557;28;20658;-85
2023/03/24 04:56:26;;;;;;;1.37;1.27;;;;;;;19.50;50.80;96596.63;4974591;28;20207;-84
2023/03/24 04:58:53;;;;;;;1.37;1.30;;;;;;;18.30;51.00;96379.06;4992307;28;20226;-84
2023/03/24 05:01:20;;;;;;;1.40;1.30;;;;;;;18.36;50.75;96394.47;4994511;28;20206;-85
2023/03/24 05:03:47;;;;;;;1.33;1.23;;;;;;;19.50;50.41;96601.75;4981051;28;20199;-83
2023/03/24 05:06:14;;;;;;;1.30;1.20;;;;;;;19.49;50.76;96601.69;4972539;28;20198;-85
2023/03/24 05:08:40;;;;;;;1.60;1.50;;;;;;;19.51;50.54;96602.59;4977239;28;20309;-84
2023/03/24 05:11:07;;;;;;;1.20;1.20;;;;;;;19.51;50.62;96605.16;5005081;28;20210;-83
2023/03/24 05:13:34;;;;;;;1.43;1.33;;;;;;;19.51;50.77;96615.34;5011538;28;20256;-84
2023/03/24 05:16:00;;;;;;;1.60;1.50;;;;;;;18.14;50.75;96385.44;4985509;28;20725;-84
2023/03/24 05:18:27;;;;;;;1.40;1.30;;;;;;;18.75;50.73;96472.63;4996305;28;20265;-84
2023/03/24 05:20:53;;;;;;;1.50;1.40;;;;;;;19.50;50.59;96600.88;5008213;28;20218;-84
2023/03/24 05:23:20;;;;;;;1.30;1.20;;;;;;;18.56;50.87;96457.72;5002166;28;20645;-84
2023/03/24 05:25:47;;;;;;;1.67;1.37;;;;;;;19.20;50.68;96551.72;4995415;28;20214;-85
2023/03/24 05:28:13;;;;;;;1.67;1.23;;;;;;;18.59;51.29;96460.34;4973637;28;20206;-84
2023/03/24 05:30:40;;;;;;;1.40;1.30;;;;;;;17.18;50.97;96217.84;4987167;28;20271;-84
2023/03/24 05:33:06;;;;;;;1.50;1.40;;;;;;;19.51;50.59;96615.34;5007359;28;20219;-84
2023/03/24 05:35:33;;;;;;;1.23;1.20;;;;;;;19.02;50.93;96536.91;5006554;28;20209;-84
2023/03/24 05:38:00;;;;;;;1.20;1.20;;;;;;;19.51;50.95;96626.38;4971565;28;20258;-84
2023/03/24 05:40:26;;;;;;;1.40;1.30;;;;;;;17.58;50.76;96290.03;4991187;28;20706;-84
2023/03/24 05:42:53;;;;;;;1.67;1.57;;;;;;;14.88;50.96;95832.34;4995425;28;20209;-84
2023/03/24 05:45:19;;;;;;;1.50;1.40;;;;;;;17.58;50.39;96295.09;4993878;28;20233;-84
2023/03/24 05:47:46;;;;;;;1.40;1.30;;;;;;;18.16;50.68;96394.84;4986805;28;20211;-84
2023/03/24 05:50:13;;;;;;;1.40;1.30;;;;;;;19.52;50.74;96623.03;5011207;28;20226;-84
2023/03/24 05:52:40;;;;;;;1.60;1.50;;;;;;;18.85;50.76;96502.53;5005451;28;20676;-84
2023/03/24 05:55:08;;;;;;;1.50;1.40;;;;;;;17.63;50.55;96293.53;4990996;28;20238;-84
2023/03/24 05:57:35;;;;;;;1.50;1.40;;;;;;;18.47;50.71;96437.16;4990879;28;20218;-84
2023/03/24 06:00:06;;;;;;;1.50;1.40;;;;;;;17.63;50.65;96291.00;4993494;28;20230;-84
2023/03/24 06:02:34;;;;;;;1.30;1.20;;;;;;;18.88;50.57;96514.47;4995736;28;20233;-84
2023/03/24 06:05:02;;;;;;;1.50;1.40;;;;;;;19.52;50.57;96625.56;4992009;28;20209;-84
2023/03/24 06:07:29;;;;;;;1.60;1.50;;;;;;;19.18;51.53;96604.31;5008303;28;20269;-84
2023/03/24 06:09:57;;;;;;;1.13;1.13;;;;;;;19.52;50.69;96623.03;4987791;28;20258;-84
2023/03/24 06:12:23;;;;;;;1.20;1.20;;;;;;;19.02;50.60;96534.34;5010349;28;20206;-84
2023/03/24 06:14:50;;;;;;;1.43;1.33;;;;;;;19.02;50.35;96511.44;4995140;28;20573;-84
2023/03/24 06:17:17;;;;;;;1.30;1.20;;;;;;;17.04;50.07;96135.41;4986290;28;20219;-84
2023/03/24 06:19:48;;;;;;;1.40;1.30;;;;;;;19.54;50.41;96549.16;4989521;28;20270;-84
2023/03/24 06:22:16;;;;;;;1.40;1.30;;;;;;;19.27;50.66;96495.06;5010207;28;20206;-85
2023/03/24 06:24:43;;;;;;;1.70;1.60;;;;;;;18.70;50.48;96402.06;4991676;28;20202;-85
2023/03/24 06:27:10;;;;;;;1.60;1.50;;;;;;;19.55;50.67;96548.31;5010052;28;20239;-84
2023/03/24 06:29:37;;;;;;;1.70;1.60;;;;;;;19.09;50.57;96464.03;5008600;28;20218;-84
2023/03/24 06:32:04;;;;;;;1.60;1.50;;;;;;;19.54;50.84;96551.72;4994535;28;20239;-85
2023/03/24 06:34:31;;;;;;;1.50;1.40;;;;;;;19.25;50.55;96530.66;5008939;28;20238;-84
2023/03/24 06:36:57;;;;;;;1.10;1.10;;;;;;;19.54;50.96;96600.97;4972242;28;20295;-84
2023/03/24 06:39:25;;;;;;;1.73;1.60;;;;;;;19.55;50.67;96638.38;5011371;28;20253;-84
2023/03/24 06:41:51;;;;;;;1.70;1.60;;;;;;;18.93;50.56;96490.88;5005781;28;20213;-84
2023/03/24 06:44:18;;;;;;;1.20;1.20;;;;;;;19.54;50.60;96587.38;4978828;28;20198;-84
2023/03/24 06:46:46;;;;;;;1.70;1.60;;;;;;;19.20;50.70;96526.25;5008718;28;20206;-84
2023/03/24 06:49:12;;;;;;;1.50;1.40;;;;;;;19.54;50.60;96578.03;5011813;28;20289;-84
2023/03/24 06:51:39;;;;;;;1.33;1.30;;;;;;;18.82;50.51;96456.66;5006491;28;20206;-84
2023/03/24 06:54:05;;;;;;;1.30;1.30;;;;;;;19.23;50.82;96534.84;5010565;28;20282;-84
2023/03/24 06:56:33;;;;;;;1.20;1.20;;;;;;;19.30;50.58;96543.53;4991899;28;20336;-84
2023/03/24 06:59:00;;;;;;;1.50;1.40;;;;;;;18.98;50.62;96489.25;4994913;28;20222;-84
2023/03/24 07:01:27;;;;;;;1.43;1.33;;;;;;;19.39;50.43;96557.31;4969061;28;20449;-85
2023/03/24 07:03:53;;;;;;;1.40;1.30;;;;;;;19.42;50.65;96561.63;4991374;28;20213;-83
2023/03/24 07:06:21;;;;;;;1.40;1.30;;;;;;;19.55;50.74;96597.63;5008218;28;20293;-84
2023/03/24 07:08:48;;;;;;;1.50;1.40;;;;;;;19.56;50.65;96613.75;5008919;28;20227;-84
2023/03/24 07:11:15;;;;;;;1.40;1.30;;;;;;;19.05;50.45;96518.28;5010027;28;20213;-84
2023/03/24 07:13:42;;;;;;;1.60;1.50;;;;;;;17.93;51.05;96344.25;4992753;28;20583;-84
2023/03/24 07:16:08;;;;;;;1.50;1.40;;;;;;;13.36;50.87;95554.25;4994429;28;20641;-84
2023/03/24 07:18:35;;;;;;;1.20;1.20;;;;;;;16.58;50.82;96100.41;5002520;28;20309;-84
2023/03/24 07:21:02;;;;;;;1.50;1.40;;;;;;;19.57;50.31;96623.13;4992768;28;20264;-84
2023/03/24 07:23:29;;;;;;;1.60;1.50;;;;;;;18.67;50.54;96471.56;5005086;28;20294;-84
2023/03/24 07:25:56;;;;;;;1.33;1.20;;;;;;;19.57;50.73;96625.69;4977113;28;20234;-84
2023/03/24 07:28:23;;;;;;;1.40;1.30;;;;;;;17.65;50.54;96334.22;4989947;28;20203;-84
2023/03/24 07:30:49;;;;;;;1.40;1.30;;;;;;;18.46;50.51;96440.53;4976108;28;20210;-85
2023/03/24 07:33:19;;;;;;;1.60;1.50;;;;;;;19.57;50.26;96636.72;5009320;28;20972;-85
2023/03/24 07:35:46;;;;;;;1.07;1.07;;;;;;;19.07;50.54;96565.84;5005949;28;20302;-84
2023/03/24 07:38:13;;;;;;;1.40;1.30;;;;;;;18.98;50.57;96542.72;4996801;28;20226;-84
2023/03/24 07:40:39;;;;;;;1.27;1.20;;;;;;;19.58;50.64;96650.31;4970989;28;20203;-83
2023/03/24 07:43:06;;;;;;;1.63;1.53;;;;;;;19.10;50.55;96575.28;4996975;28;20217;-85
2023/03/24 07:45:32;;;;;;;1.50;1.40;;;;;;;18.77;50.35;96506.56;4992992;28;20239;-84
2023/03/24 07:48:02;;;;;;;1.57;1.47;;;;;;;19.57;50.80;96646.91;4997092;28;20205;-84
2023/03/24 07:50:29;;;;;;;1.50;1.40;;;;;;;13.49;50.49;95615.22;5012480;28;20226;-84
2023/03/24 07:52:56;;;;;;;1.73;1.63;;;;;;;18.47;50.67;96466.84;4977228;28;20210;-84
2023/03/24 07:55:26;;;;;;;1.40;1.30;;;;;;;15.35;50.48;95937.38;4987442;28;20293;-85
2023/03/24 07:57:52;;;;;;;1.40;1.30;;;;;;;18.38;50.50;96456.44;5006937;28;20233;-84
2023/03/24 08:00:20;;;;;;;1.30;1.20;;;;;;;17.42;50.38;96284.47;5008479;28;20284;-84
2023/03/24 08:02:48;;;;;;;1.40;1.30;;;;;;;19.02;50.67;96564.91;4989889;28;20238;-84
2023/03/24 08:05:17;;;;;;;1.60;1.50;;;;;;;19.58;50.51;96665.63;4999052;28;20228;-84
2023/03/24 08:07:44;;;;;;;1.60;1.50;;;;;;;19.04;50.60;96572.59;5009611;28;20203;-84
2023/03/24 08:10:12;;;;;;;1.47;1.37;;;;;;;18.13;50.69;96414.25;4999059;28;20261;-84
2023/03/24 08:12:39;;;;;;;1.60;1.50;;;;;;;18.67;50.59;96511.41;4979438;28;20328;-84
2023/03/24 08:15:06;;;;;;;1.50;1.40;;;;;;;19.56;50.72;96665.59;4975400;28;20551;-84
2023/03/24 08:17:34;;;;;;;1.50;1.40;;;;;;;18.69;50.60;96504.69;4998171;28;20764;-84
2023/03/24 08:20:11;;;;;;;1.47;1.37;;;;;;;18.98;50.71;96557.16;4988589;28;20492;-84
2023/03/24 08:22:38;;;;;;;1.50;1.40;;;;;;;18.45;50.52;96473.56;4997165;28;20216;-84
2023/03/24 08:25:05;;;;;;;1.60;1.50;;;;;;;19.58;50.64;96673.25;5006962;28;20294;-84
2023/03/24 08:27:36;;;;;;;1.20;1.20;;;;;;;18.53;50.55;96506.00;4997023;28;20294;-84
2023/03/24 08:30:07;;;;;;;1.47;1.37;;;;;;;19.57;50.65;96684.28;4976855;28;20260;-84
2023/03/24 08:32:34;;;;;;;1.40;1.30;;;;;;;18.64;50.79;96539.31;4996715;28;20199;-84
2023/03/24 08:35:03;;;;;;;1.30;1.30;;;;;;;17.26;50.54;96290.84;4993621;28;20225;-84
2023/03/24 08:37:30;;;;;;;1.33;1.23;;;;;;;19.02;50.58;96592.03;4997636;28;20284;-83
2023/03/24 08:39:57;;;;;;;1.60;1.50;;;;;;;19.23;50.53;96624.00;4993261;28;20258;-84
2023/03/24 08:42:24;;;;;;;1.60;1.50;;;;;;;19.35;50.51;96644.69;4989993;28;20210;-84
2023/03/24 08:44:51;;;;;;;1.40;1.30;;;;;;;19.57;50.73;96687.69;5004664;28;20207;-84
2023/03/24 08:47:18;;;;;;;1.50;1.40;;;;;;;19.57;50.36;96686.84;5005722;28;20287;-84
2023/03/24 08:49:44;;;;;;;1.27;1.20;;;;;;;19.58;50.37;96720.00;5012381;28;20309;-84
2023/03/24 08:52:11;;;;;;;1.57;1.47;;;;;;;16.38;50.48;96160.69;5005790;28;20696;-84
2023/03/24 08:54:37;;;;;;;1.40;1.30;;;;;;;16.91;50.39;96234.91;4996830;28;20288;-84
2023/03/24 08:57:04;;;;;;;1.50;1.40;;;;;;;18.75;50.51;96556.59;4977861;28;20644;-84
2023/03/24 08:59:31;;;;;;;1.40;1.20;;;;;;;18.95;50.51;96597.81;5007288;28;20664;-84
2023/03/24 09:01:57;;;;;;;1.70;1.60;;;;;;;19.58;50.55;96706.41;5011062;28;20214;-84
2023/03/24 09:04:25;;;;;;;1.33;1.27;;;;;;;19.20;50.59;96649.38;5008014;28;20234;-84
2023/03/24 09:06:52;;;;;;;1.47;1.37;;;;;;;19.58;50.73;96711.50;4995783;28;20256;-84
2023/03/24 09:09:19;;;;;;;1.40;1.30;;;;;;;19.57;50.83;96715.72;5009770;28;20484;-84
2023/03/24 09:11:47;;;;;;;1.43;1.33;;;;;;;19.18;50.36;96650.16;5013099;28;20202;-84
2023/03/24 09:14:14;;;;;;;1.33;1.30;;;;;;;18.37;50.58;96515.69;5010983;28;20317;-85
2023/03/24 09:16:42;;;;;;;1.40;1.30;;;;;;;19.09;50.92;96644.84;5012122;28;20202;-84
2023/03/24 09:19:09;;;;;;;1.83;1.43;;;;;;;19.04;50.21;96637.09;4975986;28;20227;-84
2023/03/24 09:21:37;;;;;;;1.53;1.43;;;;;;;19.58;50.96;96734.44;4990633;28;20241;-84
2023/03/24 09:24:04;;;;;;;1.50;1.40;;;;;;;19.54;50.57;96722.44;5011933;28;20656;-84
2023/03/24 09:26:32;;;;;;;1.60;1.50;;;;;;;19.58;50.56;96742.94;5011141;28;20237;-84
2023/03/24 09:28:59;;;;;;;1.53;1.43;;;;;;;19.58;50.99;96747.16;5005588;28;20226;-84
2023/03/24 09:31:25;;;;;;;1.50;1.40;;;;;;;18.62;50.54;96590.19;5006120;28;20207;-84
2023/03/24 09:33:52;;;;;;;1.43;1.33;;;;;;;17.56;50.37;96416.13;4992544;28;20217;-84
2023/03/24 09:36:18;;;;;;;1.50;1.40;;;;;;;14.06;50.48;95834.06;4975750;28;20271;-84
2023/03/24 09:38:45;;;;;;;1.50;1.40;;;;;;;19.25;50.57;96716.59;4991801;28;20221;-84
2023/03/24 09:41:17;;;;;;;1.60;1.50;;;;;;;18.97;50.59;96662.34;4977710;28;20245;-84
2023/03/24 09:43:46;;;;;;;1.83;1.73;;;;;;;19.23;50.40;96702.06;4992483;28;20198;-84
2023/03/24 09:46:19;;;;;;;1.40;1.30;;;;;;;19.06;50.63;96671.09;5012137;28;20210;-84
2023/03/24 09:48:53;;;;;;;1.50;1.40;;;;;;;19.39;50.59;96729.72;4988116;28;20219;-84
2023/03/24 09:51:28;;;;;;;1.80;1.70;;;;;;;19.57;50.80;96761.59;4979014;28;20208;-84
2023/03/24 09:53:59;;;;;;;1.40;1.30;;;;;;;19.59;50.75;96784.56;4988414;28;20667;-84
2023/03/24 09:56:28;;;;;;;1.30;1.20;;;;;;;18.81;50.59;96640.75;4996844;28;20202;-84
2023/03/24 09:59:06;;;;;;;1.60;1.50;;;;;;;19.21;50.58;96729.19;4985932;28;20237;-85
2023/03/24 10:01:34;;;;;;;1.20;1.20;;;;;;;18.64;50.32;96631.81;4969210;28;20203;-82
2023/03/24 10:04:01;;;;;;;1.50;1.40;;;;;;;19.24;50.56;96714.84;4970457;28;20215;-84
2023/03/24 10:06:35;;;;;;;1.43;1.33;;;;;;;18.93;50.68;96663.97;5005558;28;20260;-84
2023/03/24 10:09:11;;;;;;;1.47;1.37;;;;;;;19.58;50.47;96776.09;4972668;28;20254;-84
2023/03/24 10:12:05;;;;;;;1.40;1.30;;;;;;;19.58;50.73;96770.97;4993007;28;20198;-84
2023/03/24 10:14:31;;;;;;;1.40;1.30;;;;;;;19.59;50.55;96767.59;4992002;28;20281;-84
2023/03/24 10:16:58;;;;;;;1.40;1.30;;;;;;;19.58;50.64;96775.22;5008873;28;20642;-84
2023/03/24 10:19:46;;;;;;;1.20;1.20;;;;;;;19.58;50.58;96770.09;5009474;28;20230;-84
2023/03/24 10:22:15;;;;;;;1.50;1.40;;;;;;;19.58;50.67;96759.91;5002844;28;20211;-84
2023/03/24 10:25:00;;;;;;;1.20;1.20;;;;;;;19.58;50.61;96750.59;5013661;28;20206;-83
2023/03/24 10:27:40;;;;;;;1.50;1.40;;;;;;;19.58;50.55;96734.44;5007388;28;20201;-84
2023/03/24 10:30:38;;;;;;;1.40;1.30;;;;;;;19.57;50.65;96723.38;4987443;28;20229;-84
2023/03/24 10:33:12;;;;;;;1.20;1.20;;;;;;;18.88;50.46;96604.44;4994243;28;20249;-84
2023/03/24 10:35:47;;;;;;;1.40;1.30;;;;;;;18.32;50.49;96499.50;4992061;28;20221;-84
2023/03/24 10:38:20;;;;;;;1.40;1.30;;;;;;;19.27;50.57;96651.28;5010019;28;20778;-85
2023/03/24 10:40:48;;;;;;;1.47;1.37;;;;;;;18.68;50.74;96525.88;4975529;28;20202;-84
2023/03/24 10:43:16;;;;;;;1.20;1.20;;;;;;;19.10;50.62;96586.31;4978642;28;20210;-84
2023/03/24 10:45:44;;;;;;;1.17;1.17;;;;;;;19.58;50.61;96675.81;4968778;28;20294;-84
2023/03/24 10:48:12;;;;;;;1.40;1.30;;;;;;;18.95;50.61;96562.19;5006299;28;20612;-84
2023/03/24 10:50:42;;;;;;;1.40;1.30;;;;;;;19.26;50.65;96602.81;4989628;28;20273;-84
2023/03/24 10:53:19;;;;;;;1.20;1.20;;;;;;;19.21;50.55;96569.59;4989376;28;20579;-84
2023/03/24 10:55:46;;;;;;;1.40;1.30;;;;;;;19.56;50.61;96632.44;4990664;28;20234;-84
2023/03/24 10:58:20;;;;;;;1.40;1.30;;;;;;;19.23;50.44;96585.78;5010594;28;20666;-84
2023/03/24 11:00:46;;;;;;;1.50;1.40;;;;;;;19.28;50.57;96609.72;4975864;28;20207;-84
2023/03/24 11:03:15;;;;;;;1.13;1.13;;;;;;;17.70;50.61;96352.97;4987074;28;20210;-84
2023/03/24 11:05:42;;;;;;;1.40;1.30;;;;;;;19.56;50.64;96708.91;4978561;28;20203;-84
2023/03/24 11:08:13;;;;;;;1.47;1.37;;;;;;;19.33;50.64;96681.16;4987701;28;20230;-84
2023/03/24 11:10:40;;;;;;;1.10;1.10;;;;;;;18.64;50.44;96572.41;4998269;28;20199;-83
2023/03/24 11:13:16;;;;;;;1.40;1.30;;;;;;;18.60;50.70;96561.31;4976716;28;20210;-85
2023/03/24 11:16:03;;;;;;;1.20;1.20;;;;;;;19.58;50.60;96721.69;4990460;28;20202;-84
2023/03/24 11:18:30;;;;;;;1.43;1.33;;;;;;;19.58;50.70;96719.13;5016906;28;20218;-84
2023/03/24 11:21:03;;;;;;;1.30;1.20;;;;;;;19.57;50.56;96714.88;5002464;28;20203;-84
2023/03/24 11:23:39;;;;;;;1.10;1.10;;;;;;;16.73;50.49;96282.59;4977796;28;20220;-84
2023/03/24 11:26:08;;;;;;;1.50;1.40;;;;;;;19.02;50.65;96626.03;4999220;28;20591;-85
2023/03/24 11:28:39;;;;;;;1.40;1.30;;;;;;;19.00;50.60;96616.59;4979942;28;20228;-84
2023/03/24 11:31:08;;;;;;;1.20;1.20;;;;;;;19.58;50.58;96721.69;4998933;28;20293;-84
2023/03/24 11:33:42;;;;;;;1.50;1.40;;;;;;;17.84;50.66;96421.13;5005024;28;20202;-84
2023/03/24 11:36:34;;;;;;;1.23;1.20;;;;;;;19.57;50.63;96708.06;5012541;28;20221;-84
2023/03/24 11:39:17;;;;;;;1.10;1.10;;;;;;;19.58;50.57;96708.94;5008996;28;20234;-84
2023/03/24 11:42:03;;;;;;;1.30;1.20;;;;;;;19.57;50.53;96687.69;5010391;28;20206;-84
2023/03/24 11:44:38;;;;;;;1.40;1.30;;;;;;;19.56;50.66;96685.09;5011826;28;20214;-84
2023/03/24 11:47:40;;;;;;;1.20;1.20;;;;;;;19.56;50.62;96677.44;5015982;28;20205;-84
2023/03/24 11:50:10;;;;;;;1.10;1.10;;;;;;;19.56;50.78;96673.22;4968613;28;20666;-84
2023/03/24 11:52:40;;;;;;;1.57;1.47;;;;;;;19.04;50.57;96586.16;5003062;28;20233;-84